Time;durP1;ratioP1;P1;durP2;ratioP2;P2;SDS_P1;SDS_P2;PMS_P1;PMS_P2;Temp;Humidity;BMP_temperature;BMP_pressure;BME280_temperature;BME280_humidity;BME280_pressure;Samples;Min_cycle;Max_cycle;Signal;HPM_P1;HPM_P2
2024/04/01 00:00:33;;;;;;;21.63;14.13;;;;;;;10.71;100.00;99206.38;5036704;28;20787;-73
2024/04/01 00:02:59;;;;;;;22.37;14.60;;;;;;;10.91;100.00;99248.88;5020905;28;20191;-73
2024/04/01 00:05:24;;;;;;;24.10;14.73;;;;;;;10.37;100.00;99173.28;5036525;28;20180;-73
2024/04/01 00:07:51;;;;;;;26.10;16.93;;;;;;;10.40;100.00;99167.44;5035373;28;20541;-73
2024/04/01 00:10:18;;;;;;;20.93;13.63;;;;;;;10.09;100.00;99139.19;5019318;28;20192;-73
2024/04/01 00:12:43;;;;;;;24.93;15.30;;;;;;;10.44;100.00;99176.63;5037456;28;20459;-73
2024/04/01 00:15:08;;;;;;;18.70;13.67;;;;;;;10.60;100.00;99205.34;5038012;28;20427;-73
2024/04/01 00:17:34;;;;;;;20.50;14.10;;;;;;;10.11;100.00;99126.38;5038353;28;20242;-73
2024/04/01 00:19:59;;;;;;;23.37;13.53;;;;;;;10.14;100.00;99141.97;5017663;28;20181;-73
2024/04/01 00:22:25;;;;;;;22.80;14.23;;;;;;;10.78;100.00;99216.94;5037197;28;20287;-73
2024/04/01 00:24:50;;;;;;;21.63;14.30;;;;;;;10.63;100.00;99212.13;5035067;28;20218;-73
2024/04/01 00:27:15;;;;;;;26.93;14.00;;;;;;;10.34;100.00;99138.91;5035867;28;20214;-73
2024/04/01 00:29:41;;;;;;;21.50;13.40;;;;;;;10.90;100.00;99230.31;5036071;28;20614;-73
2024/04/01 00:32:07;;;;;;;21.33;13.00;;;;;;;10.86;100.00;99208.53;5036432;28;20703;-73
2024/04/01 00:34:32;;;;;;;25.40;14.17;;;;;;;10.78;100.00;99171.34;5037450;28;20187;-73
2024/04/01 00:36:57;;;;;;;17.70;12.27;;;;;;;10.73;100.00;99198.91;5035940;28;20719;-73
2024/04/01 00:39:23;;;;;;;19.77;12.40;;;;;;;10.86;100.00;99200.47;5037607;28;20185;-73
2024/04/01 00:41:48;;;;;;;21.47;12.03;;;;;;;10.70;100.00;99161.81;5035842;28;20200;-73
2024/04/01 00:44:14;;;;;;;16.27;11.20;;;;;;;10.10;100.00;99088.06;5015560;28;20704;-73
2024/04/01 00:46:39;;;;;;;19.10;11.10;;;;;;;10.37;100.00;99133.06;5018688;28;20175;-73
2024/04/01 00:49:05;;;;;;;17.87;10.83;;;;;;;11.02;100.00;99199.72;5007628;28;20198;-73
2024/04/01 00:51:30;;;;;;;18.83;11.63;;;;;;;10.61;100.00;99139.13;5018055;28;20218;-73
2024/04/01 00:53:56;;;;;;;17.43;9.80;;;;;;;10.52;100.00;99122.63;5016183;28;20184;-73
2024/04/01 00:56:23;;;;;;;17.40;9.50;;;;;;;10.56;100.00;99123.78;5017766;28;20200;-73
2024/04/01 00:58:52;;;;;;;16.13;9.17;;;;;;;11.24;100.00;99231.19;5036864;28;20271;-73
2024/04/01 01:01:17;;;;;;;15.50;9.97;;;;;;;11.26;100.00;99231.78;5036300;28;20446;-73
2024/04/01 01:03:44;;;;;;;14.90;9.77;;;;;;;10.49;100.00;99147.22;5032729;28;20974;-73
2024/04/01 01:06:14;;;;;;;17.37;10.20;;;;;;;11.23;100.00;99259.09;5035548;28;20699;-73
2024/04/01 01:08:43;;;;;;;15.73;9.50;;;;;;;10.65;100.00;99191.25;5037525;28;20431;-73
2024/04/01 01:11:08;;;;;;;16.10;9.10;;;;;;;10.81;100.00;99211.09;5035985;28;20800;-73
2024/04/01 01:13:34;;;;;;;14.50;8.60;;;;;;;10.50;100.00;99159.59;5018220;28;20431;-73
2024/04/01 01:16:00;;;;;;;14.80;8.23;;;;;;;10.52;100.00;99140.59;5017344;28;20863;-74
2024/04/01 01:18:25;;;;;;;15.37;8.83;;;;;;;11.21;100.00;99251.28;5034915;28;20866;-73
2024/04/01 01:20:51;;;;;;;14.40;8.07;;;;;;;11.26;100.00;99242.50;5035233;28;20462;-73
2024/04/01 01:23:16;;;;;;;16.83;7.83;;;;;;;11.29;100.00;99240.16;5016024;28;20250;-73
2024/04/01 01:25:42;;;;;;;16.30;8.37;;;;;;;11.25;100.00;99238.19;5036594;28;20191;-73
2024/04/01 01:28:07;;;;;;;14.30;8.20;;;;;;;10.87;100.00;99167.22;5035831;28;20242;-73
2024/04/01 01:30:35;;;;;;;15.47;8.70;;;;;;;11.17;100.00;99233.22;5018163;28;20207;-73
2024/04/01 01:33:03;;;;;;;15.30;8.77;;;;;;;10.51;100.00;99152.38;5034262;28;20676;-73
2024/04/01 01:35:31;;;;;;;15.20;8.57;;;;;;;11.07;100.00;99244.56;5034259;28;20896;-73
2024/04/01 01:37:57;;;;;;;13.70;8.07;;;;;;;10.31;100.00;99126.00;5015460;28;20468;-73
2024/04/01 01:40:22;;;;;;;17.63;8.90;;;;;;;10.17;100.00;99115.50;5033136;28;20442;-73
2024/04/01 01:42:48;;;;;;;14.87;8.63;;;;;;;10.92;100.00;99231.69;5037012;28;20450;-73
2024/04/01 01:45:14;;;;;;;18.67;9.10;;;;;;;10.56;100.00;99181.97;5015942;28;20184;-73
2024/04/01 01:47:39;;;;;;;17.90;9.00;;;;;;;10.29;100.00;99138.81;5017459;28;20434;-73
2024/04/01 01:50:07;;;;;;;16.23;8.63;;;;;;;10.87;100.00;99223.56;5035741;28;20184;-74
2024/04/01 01:52:33;;;;;;;16.20;9.50;;;;;;;10.66;100.00;99235.75;5033627;28;20240;-73
2024/04/01 01:55:00;;;;;;;18.87;8.83;;;;;;;10.40;100.00;99165.56;5036767;28;20433;-73
2024/04/01 01:57:27;;;;;;;16.13;8.90;;;;;;;10.63;100.00;99223.66;5019679;28;21052;-73
2024/04/01 01:59:52;;;;;;;20.03;9.03;;;;;;;10.10;100.00;99127.44;5035131;28;20434;-73
2024/04/01 02:02:19;;;;;;;16.80;9.10;;;;;;;10.51;100.00;99206.78;5035515;28;20460;-73
2024/04/01 02:04:44;;;;;;;16.77;9.27;;;;;;;10.40;100.00;99181.66;5034961;28;20234;-73
2024/04/01 02:07:10;;;;;;;15.80;9.30;;;;;;;10.49;100.00;99192.00;5034790;28;20450;-73
2024/04/01 02:09:36;;;;;;;17.77;9.60;;;;;;;9.89;100.00;99110.09;5033353;28;21022;-73
2024/04/01 02:12:07;;;;;;;19.03;9.57;;;;;;;9.98;100.00;99118.59;5036245;28;20216;-73
2024/04/01 02:14:35;;;;;;;18.23;10.30;;;;;;;10.53;100.00;99155.59;5017129;28;20188;-73
2024/04/01 02:17:01;;;;;;;16.97;9.60;;;;;;;10.49;100.00;99149.91;5018141;28;20477;-73
2024/04/01 02:19:26;;;;;;;19.33;9.27;;;;;;;10.65;100.00;99175.16;5022247;28;20423;-73
2024/04/01 02:21:52;;;;;;;22.83;10.07;;;;;;;10.49;100.00;99165.19;5038909;28;20199;-73
2024/04/01 02:24:17;;;;;;;20.97;10.27;;;;;;;10.42;100.00;99122.44;5039168;28;20187;-73
2024/04/01 02:26:47;;;;;;;18.40;10.17;;;;;;;9.87;100.00;99039.94;5033099;28;20192;-73
2024/04/01 02:29:12;;;;;;;23.87;10.57;;;;;;;10.48;100.00;99121.50;5038817;28;20216;-73
2024/04/01 02:31:38;;;;;;;20.90;11.10;;;;;;;9.84;100.00;99019.78;5022695;28;20580;-73
2024/04/01 02:34:04;;;;;;;23.33;10.63;;;;;;;10.46;100.00;99090.63;5040991;28;20553;-73
2024/04/01 02:36:29;;;;;;;19.17;10.40;;;;;;;10.03;100.00;99028.44;5053562;22;20901;-70
2024/04/01 02:38:55;;;;;;;16.60;11.97;;;;;;;10.45;100.00;99083.63;5012500;28;20188;-70
2024/04/01 02:41:20;;;;;;;17.33;10.33;;;;;;;10.39;100.00;99077.38;5027883;28;20735;-70
2024/04/01 02:43:46;;;;;;;20.10;11.60;;;;;;;10.32;100.00;99066.78;5019205;28;20224;-70
2024/04/01 02:46:12;;;;;;;18.63;11.20;;;;;;;9.96;100.00;99019.75;5018499;28;21300;-70
2024/04/01 02:48:37;;;;;;;17.57;11.60;;;;;;;9.64;100.00;98944.44;5018507;28;20276;-69
2024/04/01 02:51:03;;;;;;;20.90;12.87;;;;;;;9.81;100.00;98971.25;5000793;28;20616;-70
2024/04/01 02:53:29;;;;;;;18.97;11.70;;;;;;;10.23;100.00;99043.28;5017641;28;20565;-70
2024/04/01 02:55:55;;;;;;;19.60;12.73;;;;;;;10.15;100.00;99037.25;5017826;28;20189;-70
2024/04/01 02:58:20;;;;;;;17.47;11.63;;;;;;;9.78;100.00;98979.75;5018387;28;20181;-70
2024/04/01 03:00:46;;;;;;;22.73;12.80;;;;;;;9.68;100.00;98965.13;5001041;28;20431;-70
2024/04/01 03:03:13;;;;;;;24.20;13.80;;;;;;;9.95;100.00;98994.00;5001291;28;20240;-70
2024/04/01 03:05:38;;;;;;;18.80;12.93;;;;;;;10.28;100.00;99041.53;5001870;28;20177;-70
2024/04/01 03:08:05;;;;;;;23.33;13.03;;;;;;;10.23;100.00;99038.72;5018979;28;21169;-70
2024/04/01 03:10:30;;;;;;;18.40;13.50;;;;;;;10.17;100.00;99028.97;5017019;28;20513;-70
2024/04/01 03:12:56;;;;;;;20.60;13.20;;;;;;;9.79;100.00;98968.00;5018251;28;20479;-70
2024/04/01 03:15:21;;;;;;;19.00;13.37;;;;;;;9.80;100.00;98981.13;5018834;28;20280;-70
2024/04/01 03:17:47;;;;;;;25.33;13.57;;;;;;;9.89;100.00;99011.84;5019822;28;20223;-70
2024/04/01 03:20:13;;;;;;;21.37;13.27;;;;;;;9.48;100.00;98940.63;5018540;28;20180;-70
2024/04/01 03:22:40;;;;;;;21.73;13.47;;;;;;;9.88;100.00;99012.09;5017736;28;21139;-70
2024/04/01 03:25:06;;;;;;;21.17;12.10;;;;;;;9.83;100.00;99012.78;5015944;28;20442;-70
2024/04/01 03:27:32;;;;;;;24.53;12.70;;;;;;;9.99;100.00;99026.50;5017083;28;20443;-70
2024/04/01 03:29:57;;;;;;;25.00;13.40;;;;;;;9.64;100.00;98992.63;4998020;28;20480;-70
2024/04/01 03:32:23;;;;;;;23.20;13.20;;;;;;;9.62;100.00;99021.47;5017300;28;20217;-69
2024/04/01 03:34:50;;;;;;;20.37;13.10;;;;;;;9.38;100.00;98988.63;5003408;28;20177;-70
2024/04/01 03:37:15;;;;;;;18.27;11.50;;;;;;;9.49;100.00;99001.16;5016532;28;20223;-70
2024/04/01 03:39:46;;;;;;;26.00;13.77;;;;;;;9.63;100.00;99015.06;5017674;28;20430;-70
2024/04/01 03:42:14;;;;;;;21.20;13.50;;;;;;;9.63;100.00;99021.25;5017396;28;20208;-70
2024/04/01 03:44:40;;;;;;;22.80;13.40;;;;;;;9.79;100.00;99029.59;5017267;28;20501;-70
2024/04/01 03:47:06;;;;;;;20.27;13.00;;;;;;;9.86;100.00;99043.63;5018651;28;20471;-71
2024/04/01 03:49:31;;;;;;;22.00;13.87;;;;;;;9.71;100.00;99031.56;5018463;28;20426;-71
2024/04/01 03:51:57;;;;;;;23.23;13.80;;;;;;;9.47;100.00;98996.03;5016295;28;20205;-70
2024/04/01 03:54:22;;;;;;;23.80;13.43;;;;;;;9.45;100.00;98992.75;5016410;28;20193;-70
2024/04/01 03:56:51;;;;;;;23.13;14.40;;;;;;;9.94;100.00;99056.66;5018350;28;20724;-70
2024/04/01 03:59:18;;;;;;;21.80;12.83;;;;;;;9.45;100.00;98999.97;5016655;28;20638;-70
2024/04/01 04:01:47;;;;;;;18.03;12.50;;;;;;;9.77;100.00;99050.41;5017242;28;20547;-70
2024/04/01 04:04:13;;;;;;;23.53;12.50;;;;;;;9.82;100.00;99061.25;5000110;28;20526;-70
2024/04/01 04:06:40;;;;;;;26.20;14.90;;;;;;;9.89;100.00;99054.72;5018480;28;20491;-70
2024/04/01 04:09:27;;;;;;;20.40;13.23;;;;;;;9.54;100.00;99006.59;5018540;28;20450;-70
2024/04/01 04:11:52;;;;;;;22.17;13.40;;;;;;;9.80;100.00;99052.63;5016175;28;20514;-70
2024/04/01 04:14:19;;;;;;;23.53;13.23;;;;;;;9.39;100.00;98980.34;5016351;28;20435;-70
2024/04/01 04:16:48;;;;;;;21.53;13.60;;;;;;;9.83;100.00;99044.09;4989197;28;20470;-70
2024/04/01 04:19:14;;;;;;;22.33;13.83;;;;;;;9.79;100.00;99040.28;5017383;28;20525;-70
2024/04/01 04:21:40;;;;;;;21.13;13.47;;;;;;;9.69;100.00;99033.69;5015679;28;20451;-70
2024/04/01 04:24:06;;;;;;;21.33;14.43;;;;;;;9.76;100.00;99052.28;4997971;28;20426;-70
2024/04/01 04:26:31;;;;;;;24.00;12.70;;;;;;;9.32;100.00;98994.91;5016173;28;20199;-70
2024/04/01 04:28:57;;;;;;;23.53;13.93;;;;;;;9.38;100.00;98983.25;5016554;28;20192;-69
2024/04/01 04:31:23;;;;;;;24.30;13.67;;;;;;;9.67;100.00;99027.75;5015460;28;20216;-69
2024/04/01 04:33:49;;;;;;;23.33;13.20;;;;;;;9.43;100.00;98999.41;5016405;28;20228;-69
2024/04/01 04:36:15;;;;;;;21.73;13.83;;;;;;;9.67;100.00;99021.59;5014683;28;20471;-70
2024/04/01 04:38:40;;;;;;;24.07;14.23;;;;;;;9.67;100.00;99034.97;5017081;28;20192;-70
2024/04/01 04:41:06;;;;;;;21.80;14.07;;;;;;;9.23;100.00;98989.91;5016014;28;20188;-70
2024/04/01 04:43:32;;;;;;;22.17;13.13;;;;;;;9.49;100.00;99030.59;5016249;28;20188;-71
2024/04/01 04:45:59;;;;;;;22.47;13.77;;;;;;;9.40;100.00;99002.56;5015724;28;20176;-70
2024/04/01 04:48:26;;;;;;;19.77;13.20;;;;;;;8.94;100.00;98938.22;4998073;28;20449;-70
2024/04/01 04:50:51;;;;;;;23.47;13.63;;;;;;;9.33;100.00;98994.66;4999450;28;20497;-70
2024/04/01 04:53:17;;;;;;;24.07;13.43;;;;;;;9.08;100.00;98964.69;4997610;28;20462;-70
2024/04/01 04:55:42;;;;;;;22.43;14.57;;;;;;;9.31;100.00;99003.97;5018258;28;20258;-69
2024/04/01 04:58:09;;;;;;;22.00;14.03;;;;;;;8.97;100.00;98951.09;4999696;28;20213;-69
2024/04/01 05:00:35;;;;;;;22.57;14.70;;;;;;;9.48;100.00;99021.72;5016522;28;20234;-70
2024/04/01 05:03:00;;;;;;;21.07;13.57;;;;;;;9.64;100.00;99048.84;4998656;28;20463;-70
2024/04/01 05:05:26;;;;;;;23.97;13.73;;;;;;;9.30;100.00;98991.66;5019066;28;20435;-70
2024/04/01 05:07:51;;;;;;;24.60;13.47;;;;;;;9.63;100.00;99034.63;5018768;28;20336;-70
2024/04/01 05:10:17;;;;;;;22.10;13.77;;;;;;;9.65;100.00;99042.41;5016079;28;20230;-70
2024/04/01 05:12:43;;;;;;;19.53;13.37;;;;;;;9.62;100.00;99042.91;5017554;28;20232;-70
2024/04/01 05:15:09;;;;;;;19.63;13.07;;;;;;;9.59;100.00;99049.53;5016512;28;20203;-70
2024/04/01 05:17:38;;;;;;;27.23;13.50;;;;;;;9.50;100.00;99045.59;4997428;28;20216;-70
2024/04/01 05:20:04;;;;;;;25.17;13.40;;;;;;;9.53;100.00;99057.69;5016275;28;20447;-70
2024/04/01 05:22:30;;;;;;;19.57;13.03;;;;;;;9.02;100.00;98991.31;5016045;28;20450;-70
2024/04/01 05:24:56;;;;;;;20.93;14.17;;;;;;;9.62;100.00;99094.56;4998876;28;20454;-70
2024/04/01 05:27:24;;;;;;;22.17;13.30;;;;;;;9.52;100.00;99089.00;4999710;28;20196;-70
2024/04/01 05:30:03;;;;;;;20.77;13.40;;;;;;;9.62;100.00;99115.97;4999527;28;20424;-69
2024/04/01 05:32:36;;;;;;;21.90;14.70;;;;;;;9.38;100.00;99076.91;4988536;28;20875;-70
2024/04/01 05:35:05;;;;;;;21.43;13.60;;;;;;;9.00;100.00;99009.47;4997741;28;20446;-70
2024/04/01 05:37:33;;;;;;;23.20;15.00;;;;;;;9.30;100.00;99064.69;5004632;28;20483;-69
2024/04/01 05:39:59;;;;;;;19.90;14.27;;;;;;;9.22;100.00;99052.47;5002062;28;20440;-70
2024/04/01 05:42:24;;;;;;;21.50;13.00;;;;;;;9.71;100.00;99127.94;5016943;28;20457;-70
2024/04/01 05:44:50;;;;;;;26.57;14.20;;;;;;;9.63;100.00;99130.16;5016559;28;20176;-69
2024/04/01 05:47:15;;;;;;;26.23;13.67;;;;;;;9.57;100.00;99126.56;5017368;28;20208;-70
2024/04/01 05:49:41;;;;;;;23.43;14.37;;;;;;;9.34;100.00;99097.94;4999332;28;20176;-70
2024/04/01 05:52:07;;;;;;;19.80;13.77;;;;;;;9.51;100.00;99119.47;5014603;28;20205;-69
2024/04/01 05:54:33;;;;;;;21.70;14.83;;;;;;;9.74;100.00;99172.19;5015236;28;20214;-70
2024/04/01 05:56:59;;;;;;;22.33;13.63;;;;;;;9.77;100.00;99177.06;5016544;28;20730;-70
2024/04/01 05:59:25;;;;;;;26.40;15.30;;;;;;;9.69;100.00;99186.28;4997484;28;20431;-69
2024/04/01 06:01:55;;;;;;;23.77;16.17;;;;;;;9.43;100.00;99162.63;4997815;28;20451;-71
2024/04/01 06:04:21;;;;;;;26.37;15.60;;;;;;;9.69;100.00;99210.38;5014725;28;20488;-70
2024/04/01 06:06:47;;;;;;;25.60;15.20;;;;;;;9.30;100.00;99155.66;5015626;28;20817;-70
2024/04/01 06:09:13;;;;;;;21.27;14.03;;;;;;;9.64;100.00;99204.91;5014731;28;20440;-70
2024/04/01 06:11:39;;;;;;;21.17;14.67;;;;;;;9.52;100.00;99182.69;4995772;28;20463;-70
2024/04/01 06:14:04;;;;;;;23.33;14.87;;;;;;;9.54;100.00;99174.41;4996241;28;20427;-70
2024/04/01 06:16:30;;;;;;;27.63;15.07;;;;;;;9.34;100.00;99150.66;5016182;28;20295;-70
2024/04/01 06:18:55;;;;;;;21.20;14.03;;;;;;;9.67;100.00;99196.41;5016159;28;20685;-70
2024/04/01 06:21:21;;;;;;;23.50;14.37;;;;;;;9.81;100.00;99226.44;5015045;28;20595;-69
2024/04/01 06:23:47;;;;;;;23.60;15.03;;;;;;;9.73;100.00;99194.66;5014512;28;20260;-70
2024/04/01 06:26:12;;;;;;;21.23;14.60;;;;;;;9.60;100.00;99166.25;5014143;28;20188;-70
2024/04/01 06:28:38;;;;;;;21.60;15.93;;;;;;;9.98;100.00;99223.03;4997265;28;20216;-70
2024/04/01 06:31:03;;;;;;;22.00;15.90;;;;;;;9.94;100.00;99225.38;5013805;28;20190;-70
2024/04/01 06:33:29;;;;;;;21.33;15.70;;;;;;;9.27;100.00;99122.16;5014673;28;20193;-70
2024/04/01 06:36:02;;;;;;;23.83;15.53;;;;;;;10.00;100.00;99234.34;5015263;28;20200;-69
2024/04/01 06:38:29;;;;;;;20.70;14.87;;;;;;;9.66;100.00;99176.06;4997366;28;20285;-70
2024/04/01 06:40:55;;;;;;;24.23;16.30;;;;;;;9.11;100.00;99133.53;5015028;28;20450;-70
2024/04/01 06:43:21;;;;;;;24.67;15.53;;;;;;;9.82;100.00;99192.44;5013327;28;20435;-70
2024/04/01 06:46:00;;;;;;;22.73;15.30;;;;;;;10.10;100.00;99237.28;5015252;28;20431;-70
2024/04/01 06:48:26;;;;;;;22.00;14.87;;;;;;;10.10;100.00;99238.06;4998223;28;20656;-70
2024/04/01 06:50:52;;;;;;;20.97;15.50;;;;;;;9.54;100.00;99139.59;4987046;28;20450;-70
2024/04/01 06:53:17;;;;;;;20.07;14.77;;;;;;;10.08;100.00;99234.00;5015378;28;20452;-70
2024/04/01 06:55:47;;;;;;;23.13;14.60;;;;;;;10.12;100.00;99241.31;5015938;28;20436;-70
2024/04/01 06:58:14;;;;;;;19.40;13.80;;;;;;;10.32;100.00;99248.19;5016330;28;20221;-70
2024/04/01 07:00:39;;;;;;;19.93;14.57;;;;;;;9.94;100.00;99207.44;5013039;28;20995;-70
2024/04/01 07:03:06;;;;;;;20.50;14.73;;;;;;;9.95;100.00;99210.94;5017154;28;20498;-71
2024/04/01 07:05:32;;;;;;;23.87;15.40;;;;;;;9.56;100.00;99156.25;5001190;28;20176;-70
2024/04/01 07:07:58;;;;;;;20.00;14.40;;;;;;;10.35;100.00;99255.78;5020132;28;20953;-70
2024/04/01 07:10:25;;;;;;;19.57;14.10;;;;;;;10.00;100.00;99189.63;4991834;28;20470;-70
2024/04/01 07:12:50;;;;;;;23.07;16.10;;;;;;;9.93;100.00;99189.75;5019336;28;20447;-70
2024/04/01 07:15:16;;;;;;;21.93;14.50;;;;;;;10.22;100.00;99229.22;4999321;28;20223;-71
2024/04/01 07:17:43;;;;;;;23.97;15.23;;;;;;;10.02;100.00;99162.63;5018850;28;20207;-70
2024/04/01 07:20:09;;;;;;;23.17;14.93;;;;;;;10.43;100.00;99209.84;5017384;28;20176;-70
2024/04/01 07:22:35;;;;;;;22.37;15.40;;;;;;;10.13;100.00;99145.72;5019053;28;20454;-70
2024/04/01 07:25:01;;;;;;;28.13;15.43;;;;;;;10.71;100.00;99208.25;5018624;28;20932;-70
2024/04/01 07:27:27;;;;;;;21.10;14.87;;;;;;;10.65;100.00;99187.75;5019257;28;20462;-70
2024/04/01 07:29:53;;;;;;;18.50;14.13;;;;;;;10.41;100.00;99163.69;5018901;28;20276;-71
2024/04/01 07:32:18;;;;;;;22.53;14.87;;;;;;;9.97;100.00;99091.00;5018459;28;20518;-71
2024/04/01 07:34:44;;;;;;;19.43;14.50;;;;;;;10.37;100.00;99158.00;5001032;28;20542;-70
2024/04/01 07:37:09;;;;;;;19.33;14.40;;;;;;;10.02;100.00;99101.81;5017382;28;20258;-70
2024/04/01 07:39:35;;;;;;;24.30;15.27;;;;;;;9.96;100.00;99098.22;5017700;28;20431;-70
2024/04/01 07:42:00;;;;;;;21.17;15.00;;;;;;;10.41;100.00;99174.41;5018107;28;20202;-70
2024/04/01 07:44:26;;;;;;;22.13;14.00;;;;;;;10.04;100.00;99118.47;5018035;28;20192;-70
2024/04/01 07:46:51;;;;;;;21.67;14.70;;;;;;;10.38;100.00;99189.09;5019091;28;20180;-70
2024/04/01 07:49:17;;;;;;;22.50;14.60;;;;;;;10.39;100.00;99192.63;5000210;28;20184;-70
2024/04/01 07:51:42;;;;;;;24.23;14.57;;;;;;;10.38;100.00;99191.78;5001113;28;20253;-70
2024/04/01 07:54:08;;;;;;;24.93;15.63;;;;;;;10.54;100.00;99233.13;5018896;28;20185;-70
2024/04/01 07:56:33;;;;;;;29.63;16.80;;;;;;;10.70;100.00;99263.72;5019815;28;20332;-70
2024/04/01 07:58:58;;;;;;;22.37;15.30;;;;;;;10.34;100.00;99214.75;5001477;28;20185;-71
2024/04/01 08:01:24;;;;;;;21.30;15.00;;;;;;;10.80;100.00;99284.59;5017342;28;20215;-70
2024/04/01 08:03:49;;;;;;;20.97;15.30;;;;;;;10.53;100.00;99263.69;5000354;28;20189;-70
2024/04/01 08:06:15;;;;;;;24.13;14.43;;;;;;;10.61;100.00;99271.31;5017412;28;20192;-70
2024/04/01 08:08:41;;;;;;;22.93;14.17;;;;;;;10.75;100.00;99300.56;5016293;28;20640;-70
2024/04/01 08:11:07;;;;;;;21.27;14.40;;;;;;;10.77;100.00;99298.47;5017677;28;20712;-70
2024/04/01 08:13:32;;;;;;;26.43;14.40;;;;;;;10.15;100.00;99198.00;5016343;28;20506;-70
2024/04/01 08:16:02;;;;;;;20.00;14.73;;;;;;;10.46;100.00;99243.41;5018470;28;20272;-70
2024/04/01 08:18:27;;;;;;;19.30;15.10;;;;;;;10.80;100.00;99303.34;5017229;28;20679;-70
2024/04/01 08:20:54;;;;;;;21.03;14.43;;;;;;;10.51;100.00;99264.97;5017494;28;20462;-70
2024/04/01 08:23:20;;;;;;;21.73;13.90;;;;;;;10.29;100.00;99233.41;5017057;28;20201;-70
2024/04/01 08:25:45;;;;;;;19.93;14.90;;;;;;;10.55;100.00;99271.47;4997650;28;20518;-70
2024/04/01 08:28:11;;;;;;;22.27;14.80;;;;;;;10.40;100.00;99280.00;4998559;28;20428;-70
2024/04/01 08:30:36;;;;;;;21.17;15.10;;;;;;;10.76;100.00;99319.13;5015700;28;20552;-70
2024/04/01 08:33:02;;;;;;;19.53;15.30;;;;;;;10.24;100.00;99253.88;5015915;28;21367;-70
2024/04/01 08:35:27;;;;;;;23.90;15.70;;;;;;;10.64;100.00;99323.66;5017053;28;20185;-70
2024/04/01 08:37:52;;;;;;;19.20;14.77;;;;;;;10.50;100.00;99296.31;5039444;22;20228;-73
2024/04/01 08:40:19;;;;;;;18.40;14.13;;;;;;;10.74;100.00;99339.97;5008973;28;21058;-73
2024/04/01 08:42:48;;;;;;;18.98;13.38;;;;;;;10.32;100.00;99285.72;5013031;28;20429;-73
2024/04/01 08:45:14;;;;;;;24.70;15.33;;;;;;;10.77;100.00;99374.38;5009736;28;20263;-73
2024/04/01 08:47:43;;;;;;;19.73;14.27;;;;;;;10.24;100.00;99329.75;5009488;28;20452;-72
2024/04/01 08:50:20;;;;;;;23.27;14.37;;;;;;;10.79;100.00;99431.28;4990043;28;20232;-73
2024/04/01 08:53:11;;;;;;;22.67;13.77;;;;;;;10.57;100.00;99424.88;5024168;28;20558;-73
2024/04/01 08:55:36;;;;;;;19.77;14.47;;;;;;;10.77;100.00;99429.88;5011447;28;20905;-73
2024/04/01 08:58:02;;;;;;;22.40;14.07;;;;;;;10.74;100.00;99441.09;5008663;28;20486;-73
2024/04/01 09:00:27;;;;;;;20.17;13.93;;;;;;;10.11;100.00;99351.41;5008963;28;20185;-73
2024/04/01 09:02:53;;;;;;;19.23;14.67;;;;;;;10.83;100.00;99458.44;5009381;28;20208;-73
2024/04/01 09:05:18;;;;;;;20.23;14.17;;;;;;;10.80;100.00;99448.19;5008720;28;20185;-73
2024/04/01 09:07:44;;;;;;;24.23;13.30;;;;;;;10.67;100.00;99446.53;5010138;28;20254;-73
2024/04/01 09:10:09;;;;;;;18.17;13.17;;;;;;;10.75;100.00;99453.44;5008837;28;20272;-73
2024/04/01 09:12:34;;;;;;;18.60;13.20;;;;;;;10.74;100.00;99459.84;5008463;28;20205;-73
2024/04/01 09:15:00;;;;;;;17.67;13.40;;;;;;;10.55;100.00;99416.25;5006722;28;20562;-73
2024/04/01 09:17:26;;;;;;;18.70;13.80;;;;;;;10.79;100.00;99454.59;5010399;28;20212;-73
2024/04/01 09:19:51;;;;;;;18.33;14.20;;;;;;;10.76;100.00;99453.22;5008620;28;20247;-73
2024/04/01 09:22:17;;;;;;;23.37;14.40;;;;;;;9.22;100.00;99230.91;5009234;28;20459;-72
2024/04/01 09:24:44;;;;;;;19.00;13.77;;;;;;;10.59;100.00;99433.50;5008536;28;20216;-73
2024/04/01 09:27:10;;;;;;;20.03;14.63;;;;;;;10.46;100.00;99417.63;5010274;28;20281;-73
2024/04/01 09:29:36;;;;;;;19.87;14.57;;;;;;;10.40;100.00;99381.84;5008989;28;20819;-73
2024/04/01 09:32:01;;;;;;;19.40;13.53;;;;;;;10.84;100.00;99412.59;4989644;28;20282;-73
2024/04/01 09:34:29;;;;;;;18.63;13.77;;;;;;;10.67;100.00;99352.69;5008719;28;20196;-72
2024/04/01 09:36:55;;;;;;;19.93;13.10;;;;;;;10.45;100.00;99306.13;5007476;28;20208;-73
2024/04/01 09:39:20;;;;;;;20.20;13.30;;;;;;;10.41;100.00;99305.75;5007352;28;21162;-73
2024/04/01 09:41:48;;;;;;;20.27;13.20;;;;;;;10.43;100.00;99298.28;4990239;28;20200;-73
2024/04/01 09:44:13;;;;;;;17.37;13.00;;;;;;;10.76;100.00;99304.88;5007372;28;20240;-73
2024/04/01 09:46:39;;;;;;;21.30;14.00;;;;;;;10.65;100.00;99297.69;5009049;28;20424;-73
2024/04/01 09:49:05;;;;;;;18.30;14.00;;;;;;;10.71;100.00;99261.88;5008974;28;20184;-73
2024/04/01 09:51:32;;;;;;;23.83;13.93;;;;;;;10.07;100.00;98989.41;5008793;28;20205;-72
2024/04/01 09:53:58;;;;;;;22.10;15.40;;;;;;;10.15;100.00;99001.59;5009354;28;20920;-72
2024/04/01 09:56:29;;;;;;;20.10;15.57;;;;;;;10.69;100.00;99082.44;5008409;28;20551;-72
2024/04/01 09:59:00;;;;;;;18.07;14.67;;;;;;;10.64;100.00;99079.66;5009060;28;20264;-72
2024/04/01 10:01:44;;;;;;;28.00;20.70;;;;;;;10.77;100.00;99108.06;5008771;28;20502;-72
2024/04/01 10:04:31;;;;;;;21.07;17.37;;;;;;;10.54;100.00;98973.09;5008584;28;20494;-72
2024/04/01 10:07:17;;;;;;;19.20;13.93;;;;;;;10.71;100.00;99017.84;5008353;28;20416;-72
2024/04/01 10:09:52;;;;;;;17.47;15.00;;;;;;;10.71;100.00;99020.53;5008252;28;20791;-73
2024/04/01 10:12:44;;;;;;;19.77;14.33;;;;;;;10.26;100.00;98975.78;5007660;28;20459;-72
2024/04/01 10:15:25;;;;;;;18.30;15.20;;;;;;;10.73;100.00;99021.09;5008384;28;20413;-72
2024/04/01 10:18:11;;;;;;;18.20;14.63;;;;;;;10.16;100.00;98902.25;5008405;28;20475;-72
2024/04/01 10:20:58;;;;;;;19.50;16.27;;;;;;;10.84;100.00;99004.91;5008057;28;20498;-72
2024/04/01 10:23:46;;;;;;;19.53;16.10;;;;;;;10.85;100.00;99009.22;5008692;28;20423;-72
2024/04/01 10:26:30;;;;;;;20.37;16.67;;;;;;;10.74;100.00;99009.31;5008809;28;20566;-73
2024/04/01 10:29:17;;;;;;;17.97;14.63;;;;;;;10.85;100.00;99035.25;4988612;28;20424;-73
2024/04/01 10:31:53;;;;;;;22.40;17.87;;;;;;;10.75;100.00;99038.56;5005989;28;20537;-72
2024/04/01 10:34:53;;;;;;;18.63;15.90;;;;;;;10.70;100.00;99065.28;5009141;28;20477;-72
2024/04/01 10:37:24;;;;;;;21.10;15.93;;;;;;;10.68;100.00;99080.03;5007754;28;20468;-72
2024/04/01 10:40:08;;;;;;;21.03;15.57;;;;;;;10.72;100.00;99130.22;5011111;28;20428;-72
2024/04/01 10:43:12;;;;;;;22.33;17.57;;;;;;;10.74;100.00;99191.69;5011503;28;20447;-72
2024/04/01 10:46:05;;;;;;;21.60;17.87;;;;;;;10.36;100.00;99183.19;5012029;28;20415;-73
2024/04/01 10:48:40;;;;;;;23.93;17.50;;;;;;;10.52;100.00;99321.00;5012071;28;20455;-72
2024/04/01 10:51:50;;;;;;;19.93;16.73;;;;;;;10.65;100.00;99523.75;5011579;28;20423;-73
2024/04/01 10:54:20;;;;;;;21.50;16.97;;;;;;;10.21;100.00;99464.16;5009912;28;20461;-72
2024/04/01 10:57:13;;;;;;;21.80;16.17;;;;;;;10.56;100.00;99533.19;5011436;28;20550;-72
2024/04/01 11:00:17;;;;;;;23.17;17.50;;;;;;;10.50;100.00;99486.66;5012580;28;20826;-72
2024/04/01 11:02:48;;;;;;;18.20;15.40;;;;;;;10.92;100.00;99545.56;5011132;28;20518;-72
2024/04/01 11:05:45;;;;;;;22.13;17.50;;;;;;;10.79;100.00;99530.53;5011363;28;20449;-73
2024/04/01 11:08:19;;;;;;;22.10;16.87;;;;;;;10.97;100.00;99531.47;5011087;28;20431;-72
2024/04/01 11:10:53;;;;;;;24.37;17.30;;;;;;;9.95;100.00;99418.00;5010275;28;20470;-73
2024/04/01 11:13:22;;;;;;;20.43;16.50;;;;;;;10.66;100.00;99511.16;4992187;28;20980;-73
2024/04/01 11:15:55;;;;;;;18.47;16.00;;;;;;;10.71;100.00;99517.44;5015472;28;20425;-73
2024/04/01 11:18:30;;;;;;;18.60;15.77;;;;;;;10.78;100.00;99511.97;5018708;28;20972;-72